Time;durP1;ratioP1;P1;durP2;ratioP2;P2;SDS_P1;SDS_P2;PMS_P1;PMS_P2;Temp;Humidity;BMP_temperature;BMP_pressure;BME280_temperature;BME280_humidity;BME280_pressure;Samples;Min_cycle;Max_cycle;Signal;HPM_P1;HPM_P2
2021/06/19 00:01:37;;;;;;;5.57;5.03;;;19.40;99.90;;;;;;5014822;28;20541;-74
2021/06/19 00:04:03;;;;;;;5.28;4.88;;;19.50;99.90;;;;;;5013678;28;20079;-74
2021/06/19 00:06:29;;;;;;;5.40;4.90;;;19.40;99.90;;;;;;4992212;28;20081;-75
2021/06/19 00:08:55;;;;;;;5.65;5.07;;;19.30;99.90;;;;;;5009089;28;20105;-74
2021/06/19 00:11:20;;;;;;;5.97;5.25;;;19.30;99.90;;;;;;5014606;28;20082;-75
2021/06/19 00:13:46;;;;;;;6.78;4.90;;;19.30;99.90;;;;;;5010140;28;20081;-74
2021/06/19 00:16:11;;;;;;;6.68;5.05;;;19.10;99.90;;;;;;4993519;28;20090;-74
2021/06/19 00:18:37;;;;;;;5.47;4.70;;;19.10;99.90;;;;;;5017746;28;20156;-75
2021/06/19 00:21:03;;;;;;;5.90;5.25;;;19.20;99.90;;;;;;5014393;28;20564;-75
2021/06/19 00:23:30;;;;;;;5.30;4.80;;;19.10;99.90;;;;;;5024268;28;20133;-74
2021/06/19 00:25:55;;;;;;;5.07;4.60;;;19.20;99.90;;;;;;5013053;28;20542;-74
2021/06/19 00:28:23;;;;;;;5.70;5.18;;;19.30;99.90;;;;;;5012350;28;20149;-74
2021/06/19 00:30:49;;;;;;;7.68;5.57;;;19.20;99.90;;;;;;5023656;28;20090;-75
2021/06/19 00:33:14;;;;;;;8.23;5.40;;;19.10;99.90;;;;;;5023293;28;20092;-74
2021/06/19 00:35:40;;;;;;;5.57;5.07;;;19.10;99.90;;;;;;5016194;28;20098;-74
2021/06/19 00:38:05;;;;;;;5.47;4.93;;;19.10;99.90;;;;;;5014663;28;20079;-75
2021/06/19 00:40:31;;;;;;;5.03;4.53;;;19.00;99.90;;;;;;5010693;28;20194;-74
2021/06/19 00:42:59;;;;;;;6.57;5.82;;;18.90;99.90;;;;;;5026197;28;20120;-74
2021/06/19 00:45:27;;;;;;;7.25;4.53;;;18.90;99.90;;;;;;5007677;28;20086;-74
2021/06/19 00:47:53;;;;;;;6.50;5.45;;;18.90;99.90;;;;;;5009701;28;20451;-74
2021/06/19 00:50:21;;;;;;;6.35;5.75;;;18.90;99.90;;;;;;5014940;28;20089;-74
2021/06/19 00:52:47;;;;;;;5.97;5.38;;;18.80;99.90;;;;;;5018990;28;20071;-74
2021/06/19 00:55:13;;;;;;;6.25;5.38;;;18.80;99.90;;;;;;5017690;28;20108;-73
2021/06/19 00:57:39;;;;;;;6.25;4.97;;;18.70;99.90;;;;;;5015220;28;20078;-74
2021/06/19 01:00:08;;;;;;;6.43;5.35;;;18.70;99.90;;;;;;5009557;28;20152;-73
2021/06/19 01:02:34;;;;;;;5.85;5.03;;;18.80;99.90;;;;;;5023224;28;20166;-73
2021/06/19 01:05:00;;;;;;;6.00;5.40;;;18.80;99.90;;;;;;5014106;28;20494;-74
2021/06/19 01:07:26;;;;;;;13.63;6.03;;;18.80;99.90;;;;;;5009815;28;20193;-73
2021/06/19 01:09:51;;;;;;;7.10;5.60;;;18.80;99.90;;;;;;5008678;28;20102;-74
2021/06/19 01:12:24;;;;;;;6.82;5.18;;;18.70;99.90;;;;;;5009832;28;20102;-74
2021/06/19 01:14:54;;;;;;;6.07;5.55;;;18.80;99.90;;;;;;5013060;28;20511;-74
2021/06/19 01:17:20;;;;;;;6.53;5.90;;;18.80;99.90;;;;;;5009001;28;20082;-74
2021/06/19 01:19:58;;;;;;;7.72;5.13;;;18.70;99.90;;;;;;5010511;28;20501;-74
2021/06/19 01:22:24;;;;;;;6.15;5.55;;;18.60;99.90;;;;;;5019254;28;20147;-74
2021/06/19 01:24:51;;;;;;;6.22;5.63;;;18.50;99.90;;;;;;5009153;28;20465;-74
2021/06/19 01:27:16;;;;;;;6.75;6.05;;;18.50;99.90;;;;;;5022240;28;20594;-74
2021/06/19 01:29:42;;;;;;;6.63;5.18;;;18.50;99.90;;;;;;5020788;28;20181;-75
2021/06/19 01:32:08;;;;;;;6.97;5.55;;;18.50;99.90;;;;;;5016751;28;20078;-75
2021/06/19 01:34:33;;;;;;;6.70;5.85;;;18.50;99.90;;;;;;5028008;28;20146;-75
2021/06/19 01:36:59;;;;;;;6.35;5.75;;;18.50;99.90;;;;;;5018303;28;20078;-75
2021/06/19 01:39:24;;;;;;;5.50;4.70;;;18.50;99.90;;;;;;5001520;28;20508;-74
2021/06/19 01:41:50;;;;;;;7.97;5.72;;;18.40;99.90;;;;;;5023191;28;20449;-74
2021/06/19 01:44:15;;;;;;;9.48;5.88;;;18.40;99.90;;;;;;5019071;28;20141;-74
2021/06/19 01:46:42;;;;;;;5.68;5.00;;;18.40;99.90;;;;;;5017626;28;20073;-75
2021/06/19 01:49:09;;;;;;;5.57;5.07;;;18.40;99.90;;;;;;5012767;28;20098;-74
2021/06/19 01:51:35;;;;;;;7.35;5.45;;;18.40;99.90;;;;;;5011883;28;20136;-74
2021/06/19 01:54:01;;;;;;;6.13;5.43;;;18.40;99.90;;;;;;5021789;28;20132;-74
2021/06/19 01:56:26;;;;;;;9.00;5.28;;;18.20;99.90;;;;;;5024902;28;20074;-74
2021/06/19 01:58:52;;;;;;;5.95;5.45;;;18.30;99.90;;;;;;5011693;28;20609;-74
2021/06/19 02:01:18;;;;;;;6.68;5.43;;;18.40;99.90;;;;;;5008671;28;20083;-75
2021/06/19 02:03:46;;;;;;;7.18;5.40;;;18.40;99.90;;;;;;5008959;28;20431;-74
2021/06/19 02:06:12;;;;;;;7.57;5.45;;;18.40;99.90;;;;;;5020733;28;20102;-74
2021/06/19 02:08:38;;;;;;;8.90;7.13;;;18.40;99.90;;;;;;5008176;28;20102;-74
2021/06/19 02:11:05;;;;;;;6.65;5.90;;;18.50;99.90;;;;;;5013145;28;20078;-74
2021/06/19 02:13:32;;;;;;;10.00;5.63;;;18.50;99.90;;;;;;5014895;28;20085;-74
2021/06/19 02:15:58;;;;;;;7.60;5.45;;;18.50;99.90;;;;;;5011586;28;20427;-74
2021/06/19 02:18:25;;;;;;;6.38;5.78;;;18.60;99.90;;;;;;5009166;28;20077;-74
2021/06/19 02:20:54;;;;;;;7.43;5.60;;;18.70;99.90;;;;;;5016520;28;20093;-75
2021/06/19 02:23:24;;;;;;;5.75;5.22;;;18.70;99.90;;;;;;5028984;28;20112;-74
2021/06/19 02:25:53;;;;;;;7.45;5.72;;;18.80;99.90;;;;;;5011524;28;20165;-74
2021/06/19 02:28:24;;;;;;;7.10;6.30;;;18.80;99.90;;;;;;5011972;28;20185;-74
2021/06/19 02:30:54;;;;;;;7.45;6.38;;;18.80;99.90;;;;;;5011091;28;20553;-74
2021/06/19 02:33:20;;;;;;;6.78;6.07;;;18.70;99.90;;;;;;5022483;28;20498;-74
2021/06/19 02:35:47;;;;;;;7.07;6.00;;;18.70;99.90;;;;;;4994944;28;20212;-74
2021/06/19 02:38:14;;;;;;;7.72;5.88;;;18.60;99.90;;;;;;5013156;28;20090;-74
2021/06/19 02:40:41;;;;;;;6.65;5.95;;;18.60;99.90;;;;;;5011038;28;20489;-74
2021/06/19 02:43:07;;;;;;;7.68;6.25;;;18.60;99.90;;;;;;5014334;28;20106;-74
2021/06/19 02:45:33;;;;;;;7.75;6.20;;;18.70;99.90;;;;;;5013412;28;20739;-74
2021/06/19 02:47:59;;;;;;;6.35;5.80;;;18.60;99.90;;;;;;5011514;28;20093;-74
2021/06/19 02:50:34;;;;;;;8.30;6.05;;;18.60;99.90;;;;;;4997186;28;20093;-74
2021/06/19 02:53:01;;;;;;;6.63;5.97;;;18.70;99.90;;;;;;5012804;28;20508;-74
2021/06/19 02:55:33;;;;;;;8.50;5.50;;;18.60;99.90;;;;;;5014288;28;20102;-74
2021/06/19 02:57:59;;;;;;;7.60;5.93;;;18.50;99.90;;;;;;5011598;28;20153;-74
2021/06/19 03:00:25;;;;;;;8.20;6.18;;;18.70;99.90;;;;;;4995700;28;20117;-74
2021/06/19 03:02:51;;;;;;;7.82;5.72;;;18.60;99.90;;;;;;5015994;28;20597;-74
2021/06/19 03:05:19;;;;;;;9.23;6.93;;;18.70;99.90;;;;;;5021102;28;20650;-74
2021/06/19 03:07:45;;;;;;;7.20;6.32;;;18.70;99.90;;;;;;5016286;28;20160;-75
2021/06/19 03:10:13;;;;;;;7.05;6.38;;;18.70;99.90;;;;;;5019784;28;20098;-74
2021/06/19 03:12:39;;;;;;;7.50;6.60;;;18.60;99.90;;;;;;5011137;28;20097;-74
2021/06/19 03:15:06;;;;;;;12.98;7.25;;;18.60;99.90;;;;;;5022174;28;20228;-74
2021/06/19 03:17:31;;;;;;;8.95;6.40;;;18.70;99.90;;;;;;5018878;28;20078;-74
2021/06/19 03:19:57;;;;;;;6.22;5.35;;;18.70;99.90;;;;;;5009988;28;20091;-75
2021/06/19 03:22:23;;;;;;;6.78;6.07;;;18.70;99.90;;;;;;5010392;28;20083;-74
2021/06/19 03:24:49;;;;;;;7.68;6.25;;;18.70;99.90;;;;;;4993318;28;20071;-75
2021/06/19 03:27:16;;;;;;;6.93;6.15;;;18.80;99.90;;;;;;5010260;28;20604;-74
2021/06/19 03:29:41;;;;;;;8.57;6.22;;;18.80;99.90;;;;;;5010317;28;20113;-74
2021/06/19 03:32:08;;;;;;;7.05;5.75;;;18.80;99.90;;;;;;5013917;28;20522;-74
2021/06/19 03:34:34;;;;;;;6.53;5.80;;;18.70;99.90;;;;;;4992808;28;20534;-74
2021/06/19 03:37:00;;;;;;;6.97;5.93;;;18.70;99.90;;;;;;4994310;28;20078;-74
2021/06/19 03:39:31;;;;;;;10.10;6.57;;;18.70;99.90;;;;;;5010734;28;20090;-74
2021/06/19 03:44:28;;;;;;;11.15;6.88;;;18.80;99.90;;;;;;5023052;28;20098;-72
2021/06/19 03:46:54;;;;;;;7.25;6.55;;;18.90;99.90;;;;;;5025579;28;20074;-74
2021/06/19 03:49:20;;;;;;;9.85;6.70;;;18.90;99.90;;;;;;5027725;28;20100;-72
2021/06/19 03:51:47;;;;;;;8.43;6.40;;;18.80;99.90;;;;;;5028645;28;20500;-71
2021/06/19 03:54:13;;;;;;;7.80;7.07;;;18.80;99.90;;;;;;5009641;28;20086;-71
2021/06/19 03:56:39;;;;;;;7.32;6.55;;;18.80;99.90;;;;;;5028842;28;20124;-72
2021/06/19 03:59:05;;;;;;;8.88;6.22;;;18.80;99.90;;;;;;5010643;28;20567;-75
2021/06/19 04:01:30;;;;;;;11.93;6.95;;;18.80;99.90;;;;;;5025485;28;20592;-72
2021/06/19 04:03:56;;;;;;;9.00;6.75;;;18.80;99.90;;;;;;5029682;28;20108;-75
2021/06/19 04:06:21;;;;;;;7.05;5.65;;;18.90;99.90;;;;;;5027171;28;20172;-74
2021/06/19 04:08:47;;;;;;;8.05;7.03;;;18.90;99.90;;;;;;5006848;28;20140;-75
2021/06/19 04:11:16;;;;;;;7.55;6.85;;;19.10;99.90;;;;;;5026518;28;20077;-75
2021/06/19 04:13:42;;;;;;;7.72;6.47;;;19.10;99.90;;;;;;5012024;28;20086;-75
2021/06/19 04:16:11;;;;;;;9.43;7.28;;;19.20;99.90;;;;;;5024820;28;20078;-75
2021/06/19 04:18:40;;;;;;;7.93;6.70;;;19.20;99.90;;;;;;5008954;28;20120;-74
2021/06/19 04:21:06;;;;;;;8.18;6.90;;;19.30;99.90;;;;;;5027714;28;20078;-75
2021/06/19 04:23:33;;;;;;;7.68;6.97;;;19.40;99.90;;;;;;5026518;28;20156;-74
2021/06/19 04:25:59;;;;;;;9.93;7.85;;;19.30;99.90;;;;;;5027567;28;20086;-74
2021/06/19 04:28:25;;;;;;;7.97;6.97;;;19.40;99.90;;;;;;5025987;28;20279;-75
2021/06/19 04:30:50;;;;;;;8.68;6.63;;;19.40;99.90;;;;;;5027329;28;20440;-75
2021/06/19 04:33:16;;;;;;;7.22;6.53;;;19.50;99.90;;;;;;5027895;28;20621;-73
2021/06/19 04:35:42;;;;;;;8.52;7.40;;;19.60;99.90;;;;;;5030110;28;21011;-75
2021/06/19 04:38:08;;;;;;;8.68;7.40;;;19.70;99.90;;;;;;5027788;28;20090;-73
2021/06/19 04:43:07;;;;;;;7.68;6.97;;;19.70;99.90;;;;;;5025347;28;20106;-74
2021/06/19 04:45:34;;;;;;;9.73;7.35;;;19.70;99.90;;;;;;4994551;28;20621;-75
2021/06/19 04:48:02;;;;;;;7.68;6.93;;;19.70;99.90;;;;;;5028130;28;20102;-75
2021/06/19 04:50:30;;;;;;;10.15;8.55;;;19.90;99.90;;;;;;5025950;28;20077;-74
2021/06/19 04:52:56;;;;;;;9.95;8.43;;;20.30;99.90;;;;;;5029063;28;20313;-74
2021/06/19 04:55:22;;;;;;;9.93;8.40;;;20.50;99.90;;;;;;5027152;28;20089;-72
2021/06/19 04:57:58;;;;;;;8.70;7.80;;;20.80;99.90;;;;;;5027606;28;20078;-75
2021/06/19 05:00:25;;;;;;;9.13;8.18;;;20.80;99.90;;;;;;5030740;28;20406;-76
2021/06/19 05:02:51;;;;;;;9.25;7.97;;;21.00;99.90;;;;;;5031071;28;20128;-75
2021/06/19 05:05:17;;;;;;;8.50;7.57;;;21.10;99.90;;;;;;5031371;28;20406;-75
2021/06/19 05:07:43;;;;;;;12.95;7.82;;;21.30;99.90;;;;;;5031982;28;20093;-75
2021/06/19 05:10:09;;;;;;;10.20;7.90;;;21.40;99.90;;;;;;4999974;28;20114;-75
2021/06/19 05:12:42;;;;;;;9.77;7.75;;;21.40;99.90;;;;;;5027056;28;20078;-75
2021/06/19 05:15:08;;;;;;;9.18;7.45;;;21.50;99.90;;;;;;5007924;28;20086;-75
2021/06/19 05:17:34;;;;;;;8.05;7.30;;;21.60;99.90;;;;;;4996877;28;20081;-75
2021/06/19 05:19:59;;;;;;;9.55;7.57;;;21.60;99.90;;;;;;5031259;28;20066;-72
2021/06/19 05:22:25;;;;;;;9.43;7.97;;;21.70;99.90;;;;;;5030403;28;20117;-75
2021/06/19 05:24:51;;;;;;;9.43;7.88;;;21.70;99.90;;;;;;5031373;28;20101;-74
2021/06/19 05:27:17;;;;;;;9.45;8.05;;;21.70;99.90;;;;;;5032637;28;20124;-75
2021/06/19 05:29:42;;;;;;;9.77;8.40;;;21.80;99.90;;;;;;5033138;28;20548;-74
2021/06/19 05:32:08;;;;;;;8.50;7.70;;;21.80;99.90;;;;;;5030556;28;20173;-75
2021/06/19 05:34:34;;;;;;;10.55;7.88;;;21.90;99.90;;;;;;5030667;28;20082;-75
2021/06/19 05:37:00;;;;;;;9.75;7.93;;;21.80;99.90;;;;;;5032156;28;20572;-75
2021/06/19 05:39:26;;;;;;;10.23;8.23;;;21.90;99.90;;;;;;5030859;28;20066;-75
2021/06/19 05:41:51;;;;;;;9.07;8.18;;;21.90;99.90;;;;;;5028435;28;20124;-75
2021/06/19 05:44:17;;;;;;;8.73;7.82;;;22.00;99.90;;;;;;5028550;28;20097;-74
2021/06/19 05:46:43;;;;;;;9.07;7.68;;;22.00;99.90;;;;;;5030395;28;20162;-75
2021/06/19 05:49:08;;;;;;;10.18;7.43;;;22.00;99.90;;;;;;5030903;28;20183;-75
2021/06/19 05:51:34;;;;;;;10.27;8.20;;;22.10;99.90;;;;;;5031927;28;20149;-75
2021/06/19 05:54:01;;;;;;;10.35;8.77;;;22.10;99.90;;;;;;5010208;28;20086;-75
2021/06/19 05:56:27;;;;;;;11.70;8.13;;;22.20;99.90;;;;;;5030432;28;20084;-72
2021/06/19 05:58:52;;;;;;;9.85;8.40;;;22.30;99.90;;;;;;5031452;28;20073;-73
2021/06/19 06:01:18;;;;;;;9.95;8.05;;;22.30;99.90;;;;;;5031376;28;20453;-72
2021/06/19 06:03:44;;;;;;;9.63;7.60;;;22.30;99.90;;;;;;5031819;28;20093;-72
2021/06/19 06:06:10;;;;;;;10.27;7.78;;;22.40;99.90;;;;;;5030945;28;20652;-72
2021/06/19 06:08:36;;;;;;;10.27;7.97;;;22.50;99.90;;;;;;5031025;28;20094;-76
2021/06/19 06:11:02;;;;;;;14.35;8.32;;;22.60;99.90;;;;;;5014195;28;20082;-74
2021/06/19 06:13:28;;;;;;;10.18;8.57;;;22.70;99.90;;;;;;5029513;28;20557;-72
2021/06/19 06:15:53;;;;;;;12.98;9.65;;;22.80;99.90;;;;;;5011785;28;20078;-73
2021/06/19 06:18:22;;;;;;;10.57;8.57;;;22.80;99.90;;;;;;5025668;28;20078;-74
2021/06/19 06:20:48;;;;;;;15.30;7.68;;;22.90;99.90;;;;;;5031548;28;20078;-74
2021/06/19 06:23:13;;;;;;;10.82;7.72;;;22.90;99.90;;;;;;5032214;28;20675;-75
2021/06/19 06:25:40;;;;;;;11.32;7.35;;;23.00;99.90;;;;;;5030616;28;20580;-73
2021/06/19 06:28:06;;;;;;;9.38;7.43;;;23.10;99.90;;;;;;5031785;28;20117;-73
2021/06/19 06:30:32;;;;;;;11.20;7.45;;;23.20;99.90;;;;;;5031328;28;20530;-75
2021/06/19 06:32:57;;;;;;;13.07;7.50;;;23.20;99.90;;;;;;5031224;28;20101;-73
2021/06/19 06:35:23;;;;;;;10.25;6.97;;;23.30;99.90;;;;;;5030111;28;20074;-73
2021/06/19 06:37:48;;;;;;;9.50;7.40;;;23.40;99.90;;;;;;5031364;28;20670;-72
2021/06/19 06:40:14;;;;;;;10.07;7.53;;;23.50;99.90;;;;;;5011436;28;20086;-74
2021/06/19 06:42:41;;;;;;;12.93;7.43;;;23.50;99.90;;;;;;5024441;28;20090;-75
2021/06/19 06:45:12;;;;;;;10.38;6.82;;;23.60;99.90;;;;;;5026850;28;20109;-74
2021/06/19 06:47:39;;;;;;;11.48;6.95;;;23.60;99.90;;;;;;5028197;28;20074;-72
2021/06/19 06:50:07;;;;;;;13.38;7.15;;;23.70;99.90;;;;;;5029846;28;20159;-75
2021/06/19 06:52:33;;;;;;;10.60;6.40;;;23.80;99.90;;;;;;5030212;28;20090;-75
2021/06/19 06:54:59;;;;;;;9.23;7.05;;;23.80;99.90;;;;;;5011186;28;20101;-73
2021/06/19 06:57:25;;;;;;;12.00;6.32;;;23.90;99.90;;;;;;5027858;28;20105;-75
2021/06/19 06:59:50;;;;;;;10.32;7.15;;;23.80;99.90;;;;;;5012701;28;20286;-74
2021/06/19 07:02:16;;;;;;;7.90;6.70;;;23.90;99.90;;;;;;4999184;28;20144;-75
2021/06/19 07:04:42;;;;;;;8.23;6.20;;;24.00;99.90;;;;;;5030108;28;20097;-75
2021/06/19 07:07:07;;;;;;;13.07;6.47;;;24.00;99.90;;;;;;5028473;28;20124;-74
2021/06/19 07:09:33;;;;;;;8.38;6.00;;;24.10;99.90;;;;;;5030473;28;20550;-74
2021/06/19 07:11:58;;;;;;;9.95;5.97;;;24.10;99.90;;;;;;5008936;28;20157;-74
2021/06/19 07:14:24;;;;;;;6.57;5.38;;;24.10;99.90;;;;;;5026195;28;20085;-75
2021/06/19 07:16:50;;;;;;;12.88;6.53;;;24.20;99.90;;;;;;5013324;28;20074;-75
2021/06/19 07:19:15;;;;;;;9.32;5.70;;;24.20;99.90;;;;;;5028811;28;20490;-76
2021/06/19 07:21:41;;;;;;;13.52;6.78;;;24.30;99.90;;;;;;5027996;28;20564;-73
2021/06/19 07:24:07;;;;;;;11.07;6.03;;;24.30;99.90;;;;;;5028509;28;20952;-75
2021/06/19 07:26:33;;;;;;;13.52;6.32;;;24.40;99.90;;;;;;5027057;28;20161;-74
2021/06/19 07:28:59;;;;;;;14.02;6.20;;;24.40;99.90;;;;;;5027918;28;20460;-75
2021/06/19 07:31:25;;;;;;;11.60;6.60;;;24.50;99.90;;;;;;5008113;28;20468;-75
2021/06/19 07:33:50;;;;;;;8.55;5.30;;;24.50;99.90;;;;;;5020396;28;20086;-75
2021/06/19 07:36:16;;;;;;;8.25;5.57;;;24.60;99.90;;;;;;5011360;28;20453;-75
2021/06/19 07:38:42;;;;;;;11.95;4.82;;;24.60;99.90;;;;;;5010205;28;20139;-75
2021/06/19 07:41:07;;;;;;;11.55;5.30;;;24.60;99.90;;;;;;5026895;28;20082;-74
2021/06/19 07:43:33;;;;;;;6.15;4.90;;;24.70;99.90;;;;;;5022926;28;20568;-75
2021/06/19 07:46:00;;;;;;;10.50;5.50;;;24.70;99.90;;;;;;5030366;28;20132;-74
2021/06/19 07:48:27;;;;;;;12.50;6.63;;;24.80;99.90;;;;;;5029901;28;20121;-73
2021/06/19 07:50:53;;;;;;;9.45;5.85;;;25.00;99.90;;;;;;5029296;28;20070;-74
2021/06/19 07:53:19;;;;;;;18.63;6.28;;;24.90;99.90;;;;;;5028130;28;20094;-73
2021/06/19 07:55:44;;;;;;;11.43;6.25;;;25.00;99.90;;;;;;5030460;28;20082;-75
2021/06/19 07:58:10;;;;;;;7.25;5.55;;;25.00;99.90;;;;;;5029834;28;20085;-73
2021/06/19 08:00:36;;;;;;;14.50;6.50;;;25.00;99.90;;;;;;5029796;28;20073;-74
2021/06/19 08:03:02;;;;;;;7.88;5.20;;;25.20;99.90;;;;;;5012680;28;20565;-75
2021/06/19 08:05:28;;;;;;;8.55;5.72;;;25.20;99.90;;;;;;5028834;28;20151;-79
2021/06/19 08:07:55;;;;;;;10.88;5.18;;;25.30;99.90;;;;;;5030468;28;20576;-73
2021/06/19 08:10:22;;;;;;;8.85;5.22;;;25.40;99.90;;;;;;4996775;28;20438;-73
2021/06/19 08:12:49;;;;;;;8.18;5.00;;;25.50;99.90;;;;;;5027581;28;20114;-75
2021/06/19 08:15:15;;;;;;;10.18;5.65;;;25.60;99.90;;;;;;5025358;28;20460;-73
2021/06/19 08:17:41;;;;;;;9.23;5.60;;;25.70;99.90;;;;;;5014845;28;20427;-73
2021/06/19 08:20:07;;;;;;;8.23;5.55;;;25.60;99.90;;;;;;5028776;28;20088;-73
2021/06/19 08:22:33;;;;;;;10.98;5.65;;;25.70;99.90;;;;;;5029019;28;20105;-75
2021/06/19 08:24:59;;;;;;;9.27;5.68;;;25.70;99.90;;;;;;5029970;28;20074;-73
2021/06/19 08:27:25;;;;;;;10.70;6.82;;;25.80;99.90;;;;;;5030008;28;20077;-74
2021/06/19 08:29:52;;;;;;;8.55;5.15;;;25.90;99.90;;;;;;5027679;28;20098;-76
2021/06/19 08:32:19;;;;;;;17.00;7.03;;;25.80;99.90;;;;;;5029039;28;20506;-76
2021/06/19 08:34:45;;;;;;;11.63;7.35;;;25.90;99.90;;;;;;5029063;28;20132;-73
2021/06/19 08:37:12;;;;;;;9.13;5.32;;;26.10;99.90;;;;;;4999513;28;20074;-74
2021/06/19 08:39:41;;;;;;;9.30;5.22;;;26.00;99.90;;;;;;5022502;28;20069;-75
2021/06/19 08:42:10;;;;;;;10.27;5.68;;;25.90;99.90;;;;;;5031695;28;20123;-74
2021/06/19 08:44:36;;;;;;;8.73;5.72;;;25.90;99.90;;;;;;5024926;28;20243;-74
2021/06/19 08:47:02;;;;;;;10.73;6.07;;;26.00;99.90;;;;;;5019897;28;20449;-74
2021/06/19 08:49:29;;;;;;;9.23;5.30;;;25.90;99.90;;;;;;5024976;28;20116;-74
2021/06/19 08:51:57;;;;;;;8.20;5.25;;;26.00;99.90;;;;;;5024408;28;20074;-74
2021/06/19 08:54:38;;;;;;;9.65;5.28;;;25.80;99.90;;;;;;5028891;28;20077;-74
2021/06/19 08:57:13;;;;;;;10.63;6.30;;;25.90;99.90;;;;;;5033219;28;20059;-73
2021/06/19 08:59:45;;;;;;;10.10;5.60;;;26.00;99.90;;;;;;5027744;28;20473;-75
2021/06/19 09:02:11;;;;;;;8.95;5.50;;;26.10;99.90;;;;;;5028277;28;20117;-73
2021/06/19 09:04:52;;;;;;;7.65;5.28;;;26.20;99.90;;;;;;5029288;28;20449;-75
2021/06/19 09:07:40;;;;;;;11.82;6.28;;;26.20;99.90;;;;;;4992666;28;20082;-73
2021/06/19 09:10:22;;;;;;;10.10;5.90;;;26.10;99.90;;;;;;4991663;28;20193;-73
2021/06/19 09:13:08;;;;;;;9.63;5.38;;;26.10;99.90;;;;;;5017764;28;20212;-75
2021/06/19 09:15:47;;;;;;;11.20;6.10;;;26.20;99.90;;;;;;4999268;28;20082;-75
2021/06/19 09:18:27;;;;;;;10.90;5.75;;;26.20;99.90;;;;;;5019414;28;20101;-73
2021/06/19 09:20:56;;;;;;;8.43;5.40;;;26.30;99.90;;;;;;5029625;28;20148;-73
2021/06/19 09:23:43;;;;;;;10.18;5.57;;;26.20;99.90;;;;;;5024468;28;20097;-76
2021/06/19 09:26:16;;;;;;;8.23;5.35;;;26.20;99.90;;;;;;5024672;28;20073;-72
2021/06/19 09:29:02;;;;;;;9.77;5.80;;;26.30;99.90;;;;;;5027675;28;20551;-73
2021/06/19 09:31:36;;;;;;;11.23;5.30;;;26.40;99.90;;;;;;5025949;28;20082;-72
2021/06/19 09:34:28;;;;;;;7.75;5.60;;;26.60;99.90;;;;;;5025826;28;20090;-73
2021/06/19 09:37:04;;;;;;;9.95;5.53;;;26.50;99.90;;;;;;5023452;28;20422;-73
2021/06/19 09:39:31;;;;;;;13.40;6.72;;;26.50;99.90;;;;;;5028106;28;20074;-74
2021/06/19 09:41:58;;;;;;;10.98;5.65;;;26.60;99.90;;;;;;5027662;28;20679;-74
2021/06/19 09:44:47;;;;;;;9.20;5.45;;;26.60;99.90;;;;;;5028421;28;20081;-76
2021/06/19 09:47:17;;;;;;;7.53;5.57;;;26.60;99.90;;;;;;5030482;28;20426;-73
2021/06/19 09:49:46;;;;;;;10.07;5.55;;;26.60;99.90;;;;;;5026069;28;20552;-72
2021/06/19 09:52:14;;;;;;;9.43;5.40;;;26.50;99.90;;;;;;5031802;28;20090;-74
2021/06/19 09:54:43;;;;;;;7.90;5.68;;;26.60;99.90;;;;;;5026598;28;20070;-72
2021/06/19 09:57:11;;;;;;;11.90;5.28;;;26.80;99.90;;;;;;5031105;28;20066;-72
2021/06/19 09:59:38;;;;;;;10.80;6.30;;;26.90;99.90;;;;;;5013102;28;20074;-74
2021/06/19 10:02:28;;;;;;;13.90;5.97;;;27.00;99.90;;;;;;5006957;28;20097;-74
2021/06/19 10:04:56;;;;;;;10.02;5.78;;;27.00;99.90;;;;;;5029953;28;20077;-74
2021/06/19 10:07:27;;;;;;;9.30;5.15;;;27.00;99.90;;;;;;5008933;28;20119;-75
2021/06/19 10:09:54;;;;;;;8.45;5.65;;;27.10;99.90;;;;;;5012980;28;20090;-73
2021/06/19 10:12:28;;;;;;;7.25;5.78;;;27.10;99.90;;;;;;5018364;28;20090;-74
2021/06/19 10:14:57;;;;;;;;;;;27.20;99.90;;;;;;5026473;28;20159;-75
2021/06/19 10:17:23;;;;;;;12.15;5.55;;;27.10;99.90;;;;;;5011439;28;19965;-74
2021/06/19 10:19:50;;;;;;;9.80;6.20;;;27.30;99.90;;;;;;5029791;28;20105;-74
2021/06/19 10:22:16;;;;;;;10.65;5.97;;;27.40;99.90;;;;;;5031057;28;20102;-73
2021/06/19 10:24:46;;;;;;;6.28;4.88;;;27.30;99.90;;;;;;5031302;28;20073;-73
2021/06/19 10:27:17;;;;;;;9.68;5.82;;;27.30;99.90;;;;;;5026121;28;20534;-73
2021/06/19 10:29:46;;;;;;;7.53;5.18;;;27.50;99.90;;;;;;5030446;28;20097;-74
2021/06/19 10:32:12;;;;;;;9.95;5.53;;;27.70;99.90;;;;;;5031738;28;20770;-72
2021/06/19 10:34:38;;;;;;;9.35;5.72;;;27.60;99.90;;;;;;5030715;28;20618;-74
2021/06/19 10:37:08;;;;;;;8.63;5.18;;;27.60;99.90;;;;;;5031450;28;20074;-74
2021/06/19 10:39:42;;;;;;;9.35;5.65;;;27.50;99.90;;;;;;5010661;28;20495;-73
2021/06/19 10:42:16;;;;;;;;;;;27.70;99.90;;;;;;5007312;28;20092;-73
2021/06/19 10:44:58;;;;;;;8.60;5.50;;;27.60;99.90;;;;;;5031550;28;19971;-72
2021/06/19 10:47:26;;;;;;;9.65;5.93;;;27.40;99.90;;;;;;5006359;28;20073;-76
2021/06/19 10:49:53;;;;;;;9.02;4.85;;;27.60;99.90;;;;;;5030734;28;20442;-73
2021/06/19 10:52:33;;;;;;;8.38;6.32;;;27.60;99.90;;;;;;5029833;28;20100;-74
2021/06/19 10:55:10;;;;;;;6.75;5.10;;;27.80;99.90;;;;;;5020107;28;20073;-74
2021/06/19 10:57:51;;;;;;;9.75;5.78;;;27.80;99.90;;;;;;5025836;28;20077;-74
2021/06/19 11:00:45;;;;;;;8.98;5.38;;;27.90;99.90;;;;;;5025059;28;20070;-75
2021/06/19 11:03:12;;;;;;;7.03;4.80;;;27.80;99.90;;;;;;5028195;28;20133;-72
2021/06/19 11:05:43;;;;;;;8.30;5.22;;;28.00;99.90;;;;;;5022580;28;20074;-74
2021/06/19 11:08:14;;;;;;;8.90;5.18;;;27.90;99.90;;;;;;5006476;28;20090;-76
2021/06/19 11:10:45;;;;;;;10.02;5.32;;;27.90;99.90;;;;;;5029882;28;20519;-75
2021/06/19 11:13:29;;;;;;;8.20;5.10;;;27.70;99.80;;;;;;5026050;28;20477;-77
2021/06/19 11:15:59;;;;;;;9.73;4.88;;;27.70;99.90;;;;;;5001489;28;20073;-76
2021/06/19 11:18:52;;;;;;;12.63;4.50;;;28.00;99.90;;;;;;5027991;28;20082;-77
2021/06/19 11:21:34;;;;;;;8.20;5.03;;;28.20;99.90;;;;;;5033371;28;20172;-74
2021/06/19 11:26:59;;;;;;;12.82;5.07;;;28.30;99.90;;;;;;5045940;28;20116;-74
2021/06/19 11:29:34;;;;;;;12.13;5.50;;;28.30;99.90;;;;;;5045247;28;20100;-74
2021/06/19 11:32:25;;;;;;;9.60;5.95;;;28.20;99.90;;;;;;5014456;28;20074;-74
2021/06/19 11:34:57;;;;;;;9.75;5.30;;;28.20;99.90;;;;;;5016587;28;20113;-74
2021/06/19 11:37:22;;;;;;;7.03;4.95;;;28.20;99.90;;;;;;5010975;28;20086;-74
2021/06/19 11:39:48;;;;;;;8.10;5.43;;;28.10;99.90;;;;;;5018757;28;20472;-74
2021/06/19 11:42:14;;;;;;;7.40;5.47;;;28.10;99.90;;;;;;5013291;28;20633;-73
2021/06/19 11:44:45;;;;;;;10.77;5.90;;;28.10;99.90;;;;;;5021968;28;20102;-74
2021/06/19 11:47:13;;;;;;;8.82;5.32;;;28.00;99.90;;;;;;5023033;28;20070;-74
2021/06/19 11:49:42;;;;;;;11.75;6.28;;;28.00;99.90;;;;;;5023368;28;20105;-74
2021/06/19 11:52:10;;;;;;;9.38;5.35;;;28.00;99.90;;;;;;5023820;28;20077;-74
2021/06/19 11:54:44;;;;;;;8.65;5.63;;;28.10;99.90;;;;;;5017583;28;20094;-74
2021/06/19 11:57:20;;;;;;;8.35;5.50;;;28.00;99.90;;;;;;5020065;28;20080;-75
2021/06/19 12:00:04;;;;;;;13.18;5.57;;;28.20;99.90;;;;;;4999178;28;20791;-75
2021/06/19 12:02:29;;;;;;;7.88;6.13;;;28.40;99.90;;;;;;5021027;28;20164;-74
2021/06/19 12:04:55;;;;;;;7.93;5.07;;;28.50;99.90;;;;;;5018107;28;20177;-76
2021/06/19 12:07:25;;;;;;;9.30;5.32;;;28.50;99.90;;;;;;5009314;28;20505;-75
2021/06/19 12:09:52;;;;;;;9.10;5.63;;;28.70;99.90;;;;;;5027140;28;20581;-75
2021/06/19 12:12:18;;;;;;;8.90;5.78;;;28.80;99.90;;;;;;5007610;28;20070;-75
2021/06/19 12:14:44;;;;;;;7.80;5.32;;;28.70;99.90;;;;;;5008147;28;20101;-76
2021/06/19 12:17:12;;;;;;;8.15;4.93;;;28.90;99.90;;;;;;5022431;28;20086;-74
2021/06/19 12:19:40;;;;;;;7.45;6.15;;;29.10;99.90;;;;;;5017725;28;20074;-75
2021/06/19 12:22:14;;;;;;;8.40;4.68;;;29.20;99.90;;;;;;5027417;28;20112;-75
2021/06/19 12:24:42;;;;;;;8.32;5.53;;;29.00;99.50;;;;;;5022147;28;20098;-75
2021/06/19 12:27:12;;;;;;;6.68;4.43;;;29.20;99.90;;;;;;5011297;28;20082;-75
2021/06/19 12:29:37;;;;;;;6.28;4.57;;;29.30;99.70;;;;;;5016265;28;20090;-75
2021/06/19 12:32:23;;;;;;;10.98;4.95;;;29.20;98.90;;;;;;5024163;28;20086;-74
2021/06/19 12:34:50;;;;;;;7.18;5.20;;;29.10;99.00;;;;;;5021654;28;20098;-74
2021/06/19 12:37:20;;;;;;;5.80;4.80;;;29.20;99.90;;;;;;5022559;28;20070;-74
2021/06/19 12:39:46;;;;;;;7.32;5.38;;;29.30;99.90;;;;;;5020293;28;20114;-74
2021/06/19 12:42:12;;;;;;;5.88;4.20;;;29.40;99.90;;;;;;5022519;28;20101;-74
2021/06/19 12:44:38;;;;;;;8.77;4.35;;;29.30;97.90;;;;;;5013830;28;20089;-77
2021/06/19 12:47:17;;;;;;;5.80;4.47;;;29.20;98.30;;;;;;5027721;28;20131;-76
2021/06/19 12:49:57;;;;;;;5.80;4.00;;;29.40;99.70;;;;;;5020946;28;20098;-77
2021/06/19 12:52:24;;;;;;;6.68;4.10;;;29.30;98.70;;;;;;5014706;28;20074;-77
2021/06/19 12:55:12;;;;;;;4.72;4.05;;;29.40;98.90;;;;;;5020261;28;20172;-75
2021/06/19 12:57:39;;;;;;;6.88;4.43;;;29.40;97.40;;;;;;5022562;28;20082;-76
2021/06/19 13:00:08;;;;;;;4.68;4.28;;;29.30;97.60;;;;;;5009360;28;20120;-75